sensor_id;sensor_type;location;lat;lon;timestamp;pressure;altitude;pressure_sealevel;temperature;humidity
76297;BME280;65104;52.994;6.552;2023-05-20T00:00:29;102612.09;;;10.64;91.63
76297;BME280;65104;52.994;6.552;2023-05-20T00:02:55;102597.69;;;10.67;91.14
76297;BME280;65104;52.994;6.552;2023-05-20T00:05:22;102609.88;;;10.71;91.62
76297;BME280;65104;52.994;6.552;2023-05-20T00:07:47;102611.56;;;10.71;91.50
76297;BME280;65104;52.994;6.552;2023-05-20T00:10:12;102607.06;;;10.67;92.25
76297;BME280;65104;52.994;6.552;2023-05-20T00:12:38;102612.13;;;10.65;92.32
76297;BME280;65104;52.994;6.552;2023-05-20T00:15:04;102609.44;;;10.62;93.45
76297;BME280;65104;52.994;6.552;2023-05-20T00:17:30;102606.19;;;10.66;92.28
76297;BME280;65104;52.994;6.552;2023-05-20T00:19:55;102608.84;;;10.68;93.33
76297;BME280;65104;52.994;6.552;2023-05-20T00:22:21;102605.75;;;10.57;94.07
76297;BME280;65104;52.994;6.552;2023-05-20T00:24:46;102611.59;;;10.53;94.00
76297;BME280;65104;52.994;6.552;2023-05-20T00:27:11;102609.22;;;10.58;94.17
76297;BME280;65104;52.994;6.552;2023-05-20T00:29:37;102598.75;;;10.53;94.87
76297;BME280;65104;52.994;6.552;2023-05-20T00:32:02;102614.00;;;10.50;96.20
76297;BME280;65104;52.994;6.552;2023-05-20T00:34:28;102610.28;;;10.43;95.15
76297;BME280;65104;52.994;6.552;2023-05-20T00:36:53;102613.56;;;10.41;95.93
76297;BME280;65104;52.994;6.552;2023-05-20T00:39:19;102606.91;;;10.44;95.92
76297;BME280;65104;52.994;6.552;2023-05-20T00:41:44;102609.31;;;10.41;96.03
76297;BME280;65104;52.994;6.552;2023-05-20T00:44:09;102598.88;;;10.38;95.95
76297;BME280;65104;52.994;6.552;2023-05-20T00:46:35;102596.75;;;10.47;95.93
76297;BME280;65104;52.994;6.552;2023-05-20T00:49:01;102594.25;;;10.49;95.80
76297;BME280;65104;52.994;6.552;2023-05-20T00:51:26;102593.91;;;10.41;95.86
76297;BME280;65104;52.994;6.552;2023-05-20T00:53:52;102588.13;;;10.45;96.24
76297;BME280;65104;52.994;6.552;2023-05-20T00:56:17;102595.47;;;10.38;97.38
76297;BME280;65104;52.994;6.552;2023-05-20T00:58:43;102595.66;;;10.42;97.16
76297;BME280;65104;52.994;6.552;2023-05-20T01:01:09;102599.47;;;10.33;97.02
76297;BME280;65104;52.994;6.552;2023-05-20T01:03:34;102590.00;;;10.32;97.83
76297;BME280;65104;52.994;6.552;2023-05-20T01:06:00;102593.53;;;10.34;97.01
76297;BME280;65104;52.994;6.552;2023-05-20T01:08:26;102584.06;;;10.33;97.43
76297;BME280;65104;52.994;6.552;2023-05-20T01:11:08;102580.88;;;10.37;97.66
76297;BME280;65104;52.994;6.552;2023-05-20T01:13:48;102591.94;;;10.36;97.20
76297;BME280;65104;52.994;6.552;2023-05-20T01:16:16;102580.72;;;10.34;97.57
76297;BME280;65104;52.994;6.552;2023-05-20T01:18:43;102586.66;;;10.33;97.34
76297;BME280;65104;52.994;6.552;2023-05-20T01:21:12;102584.06;;;10.33;96.89
76297;BME280;65104;52.994;6.552;2023-05-20T01:23:40;102581.06;;;10.24;98.44
76297;BME280;65104;52.994;6.552;2023-05-20T01:26:07;102581.78;;;10.21;98.71
76297;BME280;65104;52.994;6.552;2023-05-20T01:28:34;102581.41;;;10.13;98.85
76297;BME280;65104;52.994;6.552;2023-05-20T01:31:02;102585.16;;;10.20;99.38
76297;BME280;65104;52.994;6.552;2023-05-20T01:33:30;102574.38;;;10.09;99.97
76297;BME280;65104;52.994;6.552;2023-05-20T01:35:58;102579.50;;;10.09;98.88
76297;BME280;65104;52.994;6.552;2023-05-20T01:38:24;102586.69;;;10.16;99.46
76297;BME280;65104;52.994;6.552;2023-05-20T01:40:52;102578.91;;;10.15;99.62
76297;BME280;65104;52.994;6.552;2023-05-20T01:43:18;102567.59;;;10.11;99.39
76297;BME280;65104;52.994;6.552;2023-05-20T01:45:45;102571.72;;;10.08;99.27
76297;BME280;65104;52.994;6.552;2023-05-20T01:48:10;102568.09;;;10.21;99.24
76297;BME280;65104;52.994;6.552;2023-05-20T01:50:37;102572.50;;;10.23;99.31
76297;BME280;65104;52.994;6.552;2023-05-20T01:53:03;102562.91;;;10.19;98.88
76297;BME280;65104;52.994;6.552;2023-05-20T01:55:28;102563.78;;;10.20;99.18
76297;BME280;65104;52.994;6.552;2023-05-20T01:57:53;102561.81;;;10.15;99.37
76297;BME280;65104;52.994;6.552;2023-05-20T02:00:19;102565.03;;;10.11;99.61
76297;BME280;65104;52.994;6.552;2023-05-20T02:02:45;102564.22;;;10.12;99.55
76297;BME280;65104;52.994;6.552;2023-05-20T02:05:10;102574.91;;;10.20;98.29
76297;BME280;65104;52.994;6.552;2023-05-20T02:07:35;102566.28;;;10.18;98.91
76297;BME280;65104;52.994;6.552;2023-05-20T02:10:04;102561.91;;;10.17;98.92
76297;BME280;65104;52.994;6.552;2023-05-20T02:12:30;102562.81;;;10.18;98.52
76297;BME280;65104;52.994;6.552;2023-05-20T02:14:55;102566.06;;;10.15;98.92
76297;BME280;65104;52.994;6.552;2023-05-20T02:17:21;102560.22;;;10.00;99.03
76297;BME280;65104;52.994;6.552;2023-05-20T02:19:46;102556.03;;;10.02;99.32
76297;BME280;65104;52.994;6.552;2023-05-20T02:22:12;102563.66;;;10.00;99.61
76297;BME280;65104;52.994;6.552;2023-05-20T02:24:38;102558.44;;;9.99;99.84
76297;BME280;65104;52.994;6.552;2023-05-20T02:27:04;102557.03;;;9.88;100.00
76297;BME280;65104;52.994;6.552;2023-05-20T02:29:30;102563.22;;;9.91;100.00
76297;BME280;65104;52.994;6.552;2023-05-20T02:31:56;102563.06;;;9.88;100.00
76297;BME280;65104;52.994;6.552;2023-05-20T02:34:21;102564.38;;;9.80;100.00
76297;BME280;65104;52.994;6.552;2023-05-20T02:36:46;102564.59;;;9.85;100.00
76297;BME280;65104;52.994;6.552;2023-05-20T02:39:12;102568.13;;;9.87;100.00
76297;BME280;65104;52.994;6.552;2023-05-20T02:41:38;102557.72;;;9.84;100.00
76297;BME280;65104;52.994;6.552;2023-05-20T02:44:03;102556.03;;;9.84;100.00
76297;BME280;65104;52.994;6.552;2023-05-20T02:46:29;102549.41;;;9.71;100.00
76297;BME280;65104;52.994;6.552;2023-05-20T02:48:55;102544.50;;;9.76;100.00
76297;BME280;65104;52.994;6.552;2023-05-20T02:51:20;102552.00;;;9.89;100.00
76297;BME280;65104;52.994;6.552;2023-05-20T02:53:46;102544.28;;;9.89;100.00
76297;BME280;65104;52.994;6.552;2023-05-20T02:56:12;102552.78;;;9.88;100.00
76297;BME280;65104;52.994;6.552;2023-05-20T02:58:38;102554.63;;;9.91;100.00
76297;BME280;65104;52.994;6.552;2023-05-20T03:01:03;102551.28;;;9.92;100.00
76297;BME280;65104;52.994;6.552;2023-05-20T03:03:28;102550.16;;;9.87;100.00
76297;BME280;65104;52.994;6.552;2023-05-20T03:05:54;102552.06;;;9.91;100.00
76297;BME280;65104;52.994;6.552;2023-05-20T03:08:21;102552.59;;;10.01;99.66
76297;BME280;65104;52.994;6.552;2023-05-20T03:10:46;102550.59;;;9.96;100.00
76297;BME280;65104;52.994;6.552;2023-05-20T03:13:12;102551.41;;;9.95;100.00
76297;BME280;65104;52.994;6.552;2023-05-20T03:15:39;102555.28;;;10.04;99.96
76297;BME280;65104;52.994;6.552;2023-05-20T03:18:05;102540.94;;;10.08;99.79
76297;BME280;65104;52.994;6.552;2023-05-20T03:20:32;102547.59;;;10.04;100.00
76297;BME280;65104;52.994;6.552;2023-05-20T03:23:01;102551.72;;;10.01;100.00
76297;BME280;65104;52.994;6.552;2023-05-20T03:25:26;102548.28;;;10.00;100.00
76297;BME280;65104;52.994;6.552;2023-05-20T03:27:52;102556.91;;;10.02;100.00
76297;BME280;65104;52.994;6.552;2023-05-20T03:30:17;102550.91;;;10.02;98.60
76297;BME280;65104;52.994;6.552;2023-05-20T03:32:43;102556.78;;;9.99;99.29
76297;BME280;65104;52.994;6.552;2023-05-20T03:35:08;102548.34;;;9.84;99.46
76297;BME280;65104;52.994;6.552;2023-05-20T03:37:34;102558.09;;;9.91;100.00
76297;BME280;65104;52.994;6.552;2023-05-20T03:40:00;102559.03;;;9.93;98.70
76297;BME280;65104;52.994;6.552;2023-05-20T03:42:26;102564.44;;;9.82;99.96
76297;BME280;65104;52.994;6.552;2023-05-20T03:44:51;102548.38;;;9.86;100.00
76297;BME280;65104;52.994;6.552;2023-05-20T03:47:17;102549.69;;;9.77;100.00
76297;BME280;65104;52.994;6.552;2023-05-20T03:49:42;102556.38;;;9.74;100.00
76297;BME280;65104;52.994;6.552;2023-05-20T03:52:07;102550.59;;;9.78;99.35
76297;BME280;65104;52.994;6.552;2023-05-20T03:54:33;102555.19;;;9.85;100.00
76297;BME280;65104;52.994;6.552;2023-05-20T03:57:00;102545.38;;;9.94;99.03
76297;BME280;65104;52.994;6.552;2023-05-20T03:59:27;102553.09;;;9.94;99.33
76297;BME280;65104;52.994;6.552;2023-05-20T04:01:52;102556.44;;;9.93;98.64
76297;BME280;65104;52.994;6.552;2023-05-20T04:04:18;102559.78;;;9.91;99.57
76297;BME280;65104;52.994;6.552;2023-05-20T04:06:43;102550.03;;;9.84;99.87
76297;BME280;65104;52.994;6.552;2023-05-20T04:09:09;102552.63;;;9.85;99.69
76297;BME280;65104;52.994;6.552;2023-05-20T04:11:35;102551.19;;;9.90;97.78
76297;BME280;65104;52.994;6.552;2023-05-20T04:14:00;102564.03;;;9.90;97.97
76297;BME280;65104;52.994;6.552;2023-05-20T04:16:26;102560.84;;;9.96;99.31
76297;BME280;65104;52.994;6.552;2023-05-20T04:18:51;102566.94;;;9.80;99.64
76297;BME280;65104;52.994;6.552;2023-05-20T04:21:17;102574.94;;;9.86;99.30
76297;BME280;65104;52.994;6.552;2023-05-20T04:23:43;102572.00;;;9.78;98.62
76297;BME280;65104;52.994;6.552;2023-05-20T04:26:08;102574.56;;;9.96;97.31
76297;BME280;65104;52.994;6.552;2023-05-20T04:28:34;102563.44;;;9.96;97.22
76297;BME280;65104;52.994;6.552;2023-05-20T04:31:02;102569.69;;;10.01;97.75
76297;BME280;65104;52.994;6.552;2023-05-20T04:33:30;102570.84;;;10.07;96.47
76297;BME280;65104;52.994;6.552;2023-05-20T04:35:57;102559.78;;;10.08;95.71
76297;BME280;65104;52.994;6.552;2023-05-20T04:38:26;102569.19;;;10.26;95.58
76297;BME280;65104;52.994;6.552;2023-05-20T04:40:58;102560.53;;;10.24;93.98
76297;BME280;65104;52.994;6.552;2023-05-20T04:43:24;102564.41;;;10.33;94.03
76297;BME280;65104;52.994;6.552;2023-05-20T04:45:50;102563.97;;;10.42;93.08
76297;BME280;65104;52.994;6.552;2023-05-20T04:48:17;102563.75;;;10.55;92.39
76297;BME280;65104;52.994;6.552;2023-05-20T04:50:43;102567.47;;;10.62;92.17
76297;BME280;65104;52.994;6.552;2023-05-20T04:53:09;102564.16;;;10.64;90.96
76297;BME280;65104;52.994;6.552;2023-05-20T04:55:35;102568.97;;;10.76;90.19
76297;BME280;65104;52.994;6.552;2023-05-20T04:58:01;102570.41;;;10.88;89.01
76297;BME280;65104;52.994;6.552;2023-05-20T05:00:28;102575.28;;;11.02;90.53
76297;BME280;65104;52.994;6.552;2023-05-20T05:02:53;102575.09;;;11.16;87.24
76297;BME280;65104;52.994;6.552;2023-05-20T05:05:19;102575.56;;;11.27;86.34
76297;BME280;65104;52.994;6.552;2023-05-20T05:07:44;102570.41;;;11.27;87.32
76297;BME280;65104;52.994;6.552;2023-05-20T05:10:10;102571.22;;;11.26;87.48
76297;BME280;65104;52.994;6.552;2023-05-20T05:12:36;102565.31;;;11.28;83.72
76297;BME280;65104;52.994;6.552;2023-05-20T05:15:01;102573.91;;;11.29;84.84
76297;BME280;65104;52.994;6.552;2023-05-20T05:17:27;102571.34;;;11.29;84.76
76297;BME280;65104;52.994;6.552;2023-05-20T05:19:53;102569.72;;;11.31;82.98
76297;BME280;65104;52.994;6.552;2023-05-20T05:22:18;102572.44;;;11.34;82.50
76297;BME280;65104;52.994;6.552;2023-05-20T05:24:43;102569.97;;;11.37;82.90
76297;BME280;65104;52.994;6.552;2023-05-20T05:27:09;102569.16;;;11.38;84.18
76297;BME280;65104;52.994;6.552;2023-05-20T05:29:34;102565.84;;;11.41;83.74
76297;BME280;65104;52.994;6.552;2023-05-20T05:32:00;102571.88;;;11.41;83.81
76297;BME280;65104;52.994;6.552;2023-05-20T05:34:25;102568.00;;;11.51;81.99
76297;BME280;65104;52.994;6.552;2023-05-20T05:36:51;102574.41;;;11.60;81.21
76297;BME280;65104;52.994;6.552;2023-05-20T05:39:16;102568.47;;;11.61;79.56
76297;BME280;65104;52.994;6.552;2023-05-20T05:41:41;102568.72;;;11.68;78.64
76297;BME280;65104;52.994;6.552;2023-05-20T05:44:07;102564.78;;;11.76;78.01
76297;BME280;65104;52.994;6.552;2023-05-20T05:46:32;102566.69;;;11.80;78.64
76297;BME280;65104;52.994;6.552;2023-05-20T05:48:58;102562.59;;;11.85;78.85
76297;BME280;65104;52.994;6.552;2023-05-20T05:51:23;102555.75;;;11.85;77.34
76297;BME280;65104;52.994;6.552;2023-05-20T05:53:52;102553.53;;;11.94;76.17
76297;BME280;65104;52.994;6.552;2023-05-20T05:56:17;102554.56;;;11.98;75.47
76297;BME280;65104;52.994;6.552;2023-05-20T05:58:42;102546.31;;;12.07;72.04
76297;BME280;65104;52.994;6.552;2023-05-20T06:01:08;102551.78;;;12.14;73.24
76297;BME280;65104;52.994;6.552;2023-05-20T06:03:34;102551.88;;;12.17;72.55
76297;BME280;65104;52.994;6.552;2023-05-20T06:05:59;102564.19;;;12.24;71.55
76297;BME280;65104;52.994;6.552;2023-05-20T06:08:25;102559.56;;;12.38;69.44
76297;BME280;65104;52.994;6.552;2023-05-20T06:10:50;102561.41;;;12.40;71.06
76297;BME280;65104;52.994;6.552;2023-05-20T06:13:16;102560.16;;;12.53;68.75
76297;BME280;65104;52.994;6.552;2023-05-20T06:15:42;102566.44;;;12.60;69.65
76297;BME280;65104;52.994;6.552;2023-05-20T06:18:10;102556.47;;;12.69;68.58
76297;BME280;65104;52.994;6.552;2023-05-20T06:20:35;102567.34;;;12.84;65.65
76297;BME280;65104;52.994;6.552;2023-05-20T06:23:01;102550.91;;;13.04;63.32
76297;BME280;65104;52.994;6.552;2023-05-20T06:25:26;102564.63;;;13.27;62.70
76297;BME280;65104;52.994;6.552;2023-05-20T06:27:52;102563.50;;;13.44;62.62
76297;BME280;65104;52.994;6.552;2023-05-20T06:30:17;102565.94;;;13.40;64.68
76297;BME280;65104;52.994;6.552;2023-05-20T06:32:42;102563.69;;;13.49;62.88
76297;BME280;65104;52.994;6.552;2023-05-20T06:35:08;102550.03;;;13.53;62.61
76297;BME280;65104;52.994;6.552;2023-05-20T06:37:34;102551.19;;;13.61;63.26
76297;BME280;65104;52.994;6.552;2023-05-20T06:39:59;102548.31;;;13.79;62.42
76297;BME280;65104;52.994;6.552;2023-05-20T06:42:25;102562.72;;;13.98;62.34
76297;BME280;65104;52.994;6.552;2023-05-20T06:44:50;102557.25;;;14.15;63.25
76297;BME280;65104;52.994;6.552;2023-05-20T06:47:16;102558.66;;;14.33;60.88
76297;BME280;65104;52.994;6.552;2023-05-20T06:49:43;102550.44;;;14.44;60.46
76297;BME280;65104;52.994;6.552;2023-05-20T06:52:08;102551.47;;;14.49;60.40
76297;BME280;65104;52.994;6.552;2023-05-20T06:54:34;102553.84;;;14.72;59.37
76297;BME280;65104;52.994;6.552;2023-05-20T06:57:05;102549.75;;;14.80;58.13
76297;BME280;65104;52.994;6.552;2023-05-20T06:59:30;102538.63;;;14.82;57.40
76297;BME280;65104;52.994;6.552;2023-05-20T07:01:56;102534.34;;;14.83;57.50
76297;BME280;65104;52.994;6.552;2023-05-20T07:04:21;102537.13;;;14.90;58.92
76297;BME280;65104;52.994;6.552;2023-05-20T07:06:47;102532.16;;;14.98;58.95
76297;BME280;65104;52.994;6.552;2023-05-20T07:09:12;102533.72;;;14.91;58.57
76297;BME280;65104;52.994;6.552;2023-05-20T07:11:37;102531.63;;;15.10;56.35
76297;BME280;65104;52.994;6.552;2023-05-20T07:14:03;102531.09;;;15.23;57.78
76297;BME280;65104;52.994;6.552;2023-05-20T07:16:29;102532.00;;;15.23;57.73
76297;BME280;65104;52.994;6.552;2023-05-20T07:18:56;102528.94;;;15.38;57.58
76297;BME280;65104;52.994;6.552;2023-05-20T07:21:21;102528.72;;;15.30;57.52
76297;BME280;65104;52.994;6.552;2023-05-20T07:23:47;102525.28;;;15.30;58.16
76297;BME280;65104;52.994;6.552;2023-05-20T07:26:12;102525.63;;;15.44;56.79
76297;BME280;65104;52.994;6.552;2023-05-20T07:28:37;102536.06;;;15.47;59.16
76297;BME280;65104;52.994;6.552;2023-05-20T07:31:03;102530.38;;;15.60;56.23
76297;BME280;65104;52.994;6.552;2023-05-20T07:33:28;102519.28;;;15.32;58.52
76297;BME280;65104;52.994;6.552;2023-05-20T07:35:54;102515.28;;;15.44;58.71
76297;BME280;65104;52.994;6.552;2023-05-20T07:38:20;102521.78;;;15.61;57.74
76297;BME280;65104;52.994;6.552;2023-05-20T07:40:45;102515.84;;;15.65;56.28
76297;BME280;65104;52.994;6.552;2023-05-20T07:43:10;102518.59;;;15.71;57.48
76297;BME280;65104;52.994;6.552;2023-05-20T07:45:36;102512.81;;;15.50;57.53
76297;BME280;65104;52.994;6.552;2023-05-20T07:48:02;102514.63;;;15.52;60.20
76297;BME280;65104;52.994;6.552;2023-05-20T07:50:28;102520.34;;;15.40;58.24
76297;BME280;65104;52.994;6.552;2023-05-20T07:52:53;102519.69;;;15.48;59.06
76297;BME280;65104;52.994;6.552;2023-05-20T07:55:18;102522.75;;;15.66;58.56
76297;BME280;65104;52.994;6.552;2023-05-20T07:57:43;102518.88;;;15.83;58.14
76297;BME280;65104;52.994;6.552;2023-05-20T08:00:10;102516.75;;;15.67;57.91
76297;BME280;65104;52.994;6.552;2023-05-20T08:02:36;102514.75;;;15.91;56.86
76297;BME280;65104;52.994;6.552;2023-05-20T08:05:01;102520.25;;;16.05;56.60
76297;BME280;65104;52.994;6.552;2023-05-20T08:07:27;102511.13;;;15.83;56.96
76297;BME280;65104;52.994;6.552;2023-05-20T08:09:52;102507.34;;;16.06;57.92
76297;BME280;65104;52.994;6.552;2023-05-20T08:12:17;102508.53;;;15.83;57.55
76297;BME280;65104;52.994;6.552;2023-05-20T08:14:43;102511.50;;;16.00;57.99
76297;BME280;65104;52.994;6.552;2023-05-20T08:17:09;102510.00;;;16.09;57.58
76297;BME280;65104;52.994;6.552;2023-05-20T08:19:34;102502.59;;;16.26;57.48
76297;BME280;65104;52.994;6.552;2023-05-20T08:22:00;102500.75;;;16.22;57.25
76297;BME280;65104;52.994;6.552;2023-05-20T08:24:26;102499.72;;;16.14;57.23
76297;BME280;65104;52.994;6.552;2023-05-20T08:26:51;102490.69;;;15.61;58.06
76297;BME280;65104;52.994;6.552;2023-05-20T08:29:17;102503.13;;;15.75;59.41
76297;BME280;65104;52.994;6.552;2023-05-20T08:31:42;102486.13;;;15.87;60.15
76297;BME280;65104;52.994;6.552;2023-05-20T08:34:07;102483.72;;;15.94;59.79
76297;BME280;65104;52.994;6.552;2023-05-20T08:36:33;102493.69;;;16.15;59.94
76297;BME280;65104;52.994;6.552;2023-05-20T08:38:59;102477.09;;;16.47;59.24
76297;BME280;65104;52.994;6.552;2023-05-20T08:41:24;102475.22;;;17.29;55.45
76297;BME280;65104;52.994;6.552;2023-05-20T08:43:50;102472.69;;;17.32;56.09
76297;BME280;65104;52.994;6.552;2023-05-20T08:46:17;102472.75;;;17.88;56.57
76297;BME280;65104;52.994;6.552;2023-05-20T08:48:43;102472.97;;;18.03;54.77
76297;BME280;65104;52.994;6.552;2023-05-20T08:51:09;102467.19;;;18.25;53.65
76297;BME280;65104;52.994;6.552;2023-05-20T08:53:35;102462.19;;;18.41;51.91
76297;BME280;65104;52.994;6.552;2023-05-20T08:56:01;102458.03;;;18.56;50.45
76297;BME280;65104;52.994;6.552;2023-05-20T08:58:31;102454.06;;;18.86;53.25
76297;BME280;65104;52.994;6.552;2023-05-20T09:00:59;102458.78;;;19.28;51.37
76297;BME280;65104;52.994;6.552;2023-05-20T09:03:25;102452.69;;;19.23;48.21
76297;BME280;65104;52.994;6.552;2023-05-20T09:05:52;102459.00;;;19.52;49.12
76297;BME280;65104;52.994;6.552;2023-05-20T09:08:19;102463.53;;;19.73;47.81
76297;BME280;65104;52.994;6.552;2023-05-20T09:10:51;102462.78;;;19.94;46.46
76297;BME280;65104;52.994;6.552;2023-05-20T09:13:16;102457.63;;;20.01;44.86
76297;BME280;65104;52.994;6.552;2023-05-20T09:15:42;102458.44;;;19.91;45.64
76297;BME280;65104;52.994;6.552;2023-05-20T09:18:07;102451.56;;;20.07;46.98
76297;BME280;65104;52.994;6.552;2023-05-20T09:20:34;102446.38;;;20.16;47.28
76297;BME280;65104;52.994;6.552;2023-05-20T09:23:02;102453.47;;;20.37;46.46
76297;BME280;65104;52.994;6.552;2023-05-20T09:25:27;102451.75;;;20.43;45.10
76297;BME280;65104;52.994;6.552;2023-05-20T09:27:56;102453.53;;;20.56;43.53
76297;BME280;65104;52.994;6.552;2023-05-20T09:30:22;102441.38;;;20.77;45.33
76297;BME280;65104;52.994;6.552;2023-05-20T09:32:55;102444.94;;;21.09;44.33
76297;BME280;65104;52.994;6.552;2023-05-20T09:35:22;102434.47;;;20.94;42.15
76297;BME280;65104;52.994;6.552;2023-05-20T09:37:51;102437.97;;;21.14;45.31
76297;BME280;65104;52.994;6.552;2023-05-20T09:40:20;102427.44;;;20.63;42.27
76297;BME280;65104;52.994;6.552;2023-05-20T09:45:22;102430.03;;;20.49;44.49
76297;BME280;65104;52.994;6.552;2023-05-20T09:47:52;102414.44;;;21.14;44.38
76297;BME280;65104;52.994;6.552;2023-05-20T09:50:19;102411.00;;;21.33;44.83
76297;BME280;65104;52.994;6.552;2023-05-20T09:52:47;102418.84;;;21.21;44.38
76297;BME280;65104;52.994;6.552;2023-05-20T09:55:14;102417.06;;;20.84;42.35
76297;BME280;65104;52.994;6.552;2023-05-20T09:57:40;102424.88;;;21.04;42.78
76297;BME280;65104;52.994;6.552;2023-05-20T10:00:06;102418.75;;;21.88;41.02
76297;BME280;65104;52.994;6.552;2023-05-20T10:02:37;102403.91;;;21.90;39.47
76297;BME280;65104;52.994;6.552;2023-05-20T10:05:06;102410.06;;;21.74;39.83
76297;BME280;65104;52.994;6.552;2023-05-20T10:15:22;102382.59;;;22.72;36.99
76297;BME280;65104;52.994;6.552;2023-05-20T10:20:27;102391.59;;;22.20;38.73
76297;BME280;65104;52.994;6.552;2023-05-20T10:22:56;102381.06;;;22.36;38.16
76297;BME280;65104;52.994;6.552;2023-05-20T10:25:26;102383.88;;;21.83;37.90
76297;BME280;65104;52.994;6.552;2023-05-20T10:28:11;102380.13;;;22.48;38.46
76297;BME280;65104;52.994;6.552;2023-05-20T10:30:37;102381.31;;;21.73;38.76
76297;BME280;65104;52.994;6.552;2023-05-20T10:33:04;102385.28;;;22.60;40.71
76297;BME280;65104;52.994;6.552;2023-05-20T10:35:30;102379.09;;;22.70;37.53
76297;BME280;65104;52.994;6.552;2023-05-20T10:38:16;102388.34;;;20.84;40.04
76297;BME280;65104;52.994;6.552;2023-05-20T10:40:41;102371.78;;;20.88;40.15
76297;BME280;65104;52.994;6.552;2023-05-20T10:43:11;102368.31;;;20.74;40.31
76297;BME280;65104;52.994;6.552;2023-05-20T10:48:28;102365.19;;;22.62;38.43
76297;BME280;65104;52.994;6.552;2023-05-20T10:51:00;102366.44;;;21.88;38.03
76297;BME280;65104;52.994;6.552;2023-05-20T10:53:36;102365.72;;;21.34;40.64
76297;BME280;65104;52.994;6.552;2023-05-20T10:56:02;102360.44;;;20.55;40.43
76297;BME280;65104;52.994;6.552;2023-05-20T10:58:35;102355.09;;;20.17;41.54
76297;BME280;65104;52.994;6.552;2023-05-20T11:01:01;102344.81;;;20.57;41.57
76297;BME280;65104;52.994;6.552;2023-05-20T11:03:28;102356.97;;;20.85;40.69
76297;BME280;65104;52.994;6.552;2023-05-20T11:05:54;102339.34;;;22.06;40.43
76297;BME280;65104;52.994;6.552;2023-05-20T11:08:19;102336.59;;;22.29;39.73
76297;BME280;65104;52.994;6.552;2023-05-20T11:10:45;102336.69;;;22.15;39.41
76297;BME280;65104;52.994;6.552;2023-05-20T11:13:12;102343.88;;;21.60;41.10
76297;BME280;65104;52.994;6.552;2023-05-20T11:15:38;102332.63;;;20.77;40.35
76297;BME280;65104;52.994;6.552;2023-05-20T11:18:04;102325.56;;;21.60;38.07
76297;BME280;65104;52.994;6.552;2023-05-20T11:20:30;102329.31;;;22.73;37.24
76297;BME280;65104;52.994;6.552;2023-05-20T11:22:59;102326.28;;;21.97;39.39
76297;BME280;65104;52.994;6.552;2023-05-20T11:25:25;102329.09;;;21.56;39.04
76297;BME280;65104;52.994;6.552;2023-05-20T11:27:52;102329.63;;;22.29;35.45
76297;BME280;65104;52.994;6.552;2023-05-20T11:30:18;102324.97;;;22.75;38.19
76297;BME280;65104;52.994;6.552;2023-05-20T11:33:01;102316.53;;;22.35;36.76
76297;BME280;65104;52.994;6.552;2023-05-20T11:35:29;102323.81;;;21.60;37.88
76297;BME280;65104;52.994;6.552;2023-05-20T11:37:56;102320.94;;;22.26;38.90
76297;BME280;65104;52.994;6.552;2023-05-20T11:40:25;102301.41;;;22.71;37.37
76297;BME280;65104;52.994;6.552;2023-05-20T11:42:55;102302.03;;;23.81;39.75
76297;BME280;65104;52.994;6.552;2023-05-20T11:45:21;102295.53;;;24.08;32.76
76297;BME280;65104;52.994;6.552;2023-05-20T11:47:46;102310.66;;;23.13;35.07
76297;BME280;65104;52.994;6.552;2023-05-20T11:50:22;102307.00;;;22.24;37.07
76297;BME280;65104;52.994;6.552;2023-05-20T11:52:55;102294.69;;;23.36;34.24
76297;BME280;65104;52.994;6.552;2023-05-20T11:55:22;102285.38;;;23.85;33.16
76297;BME280;65104;52.994;6.552;2023-05-20T11:57:49;102275.81;;;23.02;34.00
76297;BME280;65104;52.994;6.552;2023-05-20T12:00:15;102294.94;;;21.89;35.69
76297;BME280;65104;52.994;6.552;2023-05-20T12:02:40;102294.28;;;21.32;36.80
76297;BME280;65104;52.994;6.552;2023-05-20T12:05:06;102295.19;;;21.28;37.59
76297;BME280;65104;52.994;6.552;2023-05-20T12:07:32;102285.47;;;21.62;36.93
76297;BME280;65104;52.994;6.552;2023-05-20T12:09:57;102277.63;;;21.64;38.63
76297;BME280;65104;52.994;6.552;2023-05-20T12:12:23;102274.03;;;21.85;39.02
76297;BME280;65104;52.994;6.552;2023-05-20T12:14:49;102270.47;;;22.02;37.44
76297;BME280;65104;52.994;6.552;2023-05-20T12:17:15;102290.81;;;21.12;38.78
76297;BME280;65104;52.994;6.552;2023-05-20T12:19:40;102273.44;;;20.72;38.69
76297;BME280;65104;52.994;6.552;2023-05-20T12:22:06;102278.59;;;20.24;40.39
76297;BME280;65104;52.994;6.552;2023-05-20T12:24:31;102275.16;;;20.94;39.68
76297;BME280;65104;52.994;6.552;2023-05-20T12:26:56;102276.03;;;21.11;39.17
76297;BME280;65104;52.994;6.552;2023-05-20T12:29:22;102276.88;;;21.15;39.38
76297;BME280;65104;52.994;6.552;2023-05-20T12:31:47;102276.91;;;21.01;39.73
76297;BME280;65104;52.994;6.552;2023-05-20T12:34:14;102268.47;;;22.44;37.09
76297;BME280;65104;52.994;6.552;2023-05-20T12:36:41;102262.00;;;22.88;37.60
76297;BME280;65104;52.994;6.552;2023-05-20T12:39:06;102255.03;;;21.52;36.54
76297;BME280;65104;52.994;6.552;2023-05-20T12:41:33;102269.03;;;21.13;39.39
76297;BME280;65104;52.994;6.552;2023-05-20T12:43:58;102254.66;;;22.24;37.49
76297;BME280;65104;52.994;6.552;2023-05-20T12:46:24;102251.09;;;22.35;34.67
76297;BME280;65104;52.994;6.552;2023-05-20T12:48:49;102256.78;;;21.41;37.52
76297;BME280;65104;52.994;6.552;2023-05-20T12:51:15;102256.88;;;21.00;39.67
76297;BME280;65104;52.994;6.552;2023-05-20T12:53:40;102263.00;;;20.81;40.31
76297;BME280;65104;52.994;6.552;2023-05-20T12:56:06;102250.38;;;22.11;38.28
76297;BME280;65104;52.994;6.552;2023-05-20T12:58:31;102240.00;;;23.05;34.84
76297;BME280;65104;52.994;6.552;2023-05-20T13:00:57;102225.72;;;23.29;33.97